Corinth Center, Vermont
Current Conditions -  °F | °C
As of 12:51 PM on Friday 21 Nov 2014 (Local Time) from KMPV Reporting Station
Overcast Overcast  
Wind Chill: 10°   Ceiling: 3500
Heat Index: 22°   Visibility: 8mi
Dew Point: 10°   Wind: 13mph
Humidity: 60%   Direction: 300°WNW
Pressure: 30.16"   Gusts: 28mph
Location:  44.0361°N, 72.2949°W
Report Text: KMPV 211751Z AUTO 30011G24KT 8SM OVC035 M06/M12 A3016 RMK AO2 SNE08 SLP232 P0000 60000 T10561122 11056 21067 51018
Loading
Personal Weather Stations






























Interactive Weather Map New forecast layout! Learn more

10-Day Weather Forecast

Advertisements
Track Severe Weather on mobile